sensor_id;sensor_type;location;lat;lon;timestamp;P1;durP1;ratioP1;P2;durP2;ratioP2
29210;SDS011;16250;49.932;10.980;2024-01-15T00:00:38;83.63;;;35.25;;
29210;SDS011;16250;49.932;10.980;2024-01-15T00:03:04;80.40;;;37.28;;
29210;SDS011;16250;49.932;10.980;2024-01-15T00:05:29;85.20;;;33.03;;
29210;SDS011;16250;49.932;10.980;2024-01-15T00:07:55;86.47;;;32.95;;
29210;SDS011;16250;49.932;10.980;2024-01-15T00:10:20;88.78;;;33.28;;
29210;SDS011;16250;49.932;10.980;2024-01-15T00:12:46;81.55;;;32.97;;
29210;SDS011;16250;49.932;10.980;2024-01-15T00:15:11;80.90;;;34.20;;
29210;SDS011;16250;49.932;10.980;2024-01-15T00:17:37;82.45;;;40.40;;
29210;SDS011;16250;49.932;10.980;2024-01-15T00:20:02;83.10;;;32.35;;
29210;SDS011;16250;49.932;10.980;2024-01-15T00:22:28;86.88;;;33.13;;
29210;SDS011;16250;49.932;10.980;2024-01-15T00:24:54;88.45;;;46.45;;
29210;SDS011;16250;49.932;10.980;2024-01-15T00:27:20;81.13;;;32.08;;
29210;SDS011;16250;49.932;10.980;2024-01-15T00:29:45;83.32;;;40.03;;
29210;SDS011;16250;49.932;10.980;2024-01-15T00:32:11;99.32;;;35.70;;
29210;SDS011;16250;49.932;10.980;2024-01-15T00:34:36;92.30;;;40.72;;
29210;SDS011;16250;49.932;10.980;2024-01-15T00:37:02;85.07;;;32.88;;
29210;SDS011;16250;49.932;10.980;2024-01-15T00:39:28;96.70;;;42.00;;
29210;SDS011;16250;49.932;10.980;2024-01-15T00:41:53;87.43;;;33.53;;
29210;SDS011;16250;49.932;10.980;2024-01-15T00:44:18;90.50;;;39.25;;
29210;SDS011;16250;49.932;10.980;2024-01-15T00:46:44;93.28;;;34.67;;
29210;SDS011;16250;49.932;10.980;2024-01-15T00:49:13;84.50;;;32.33;;
29210;SDS011;16250;49.932;10.980;2024-01-15T00:51:39;95.80;;;35.53;;
29210;SDS011;16250;49.932;10.980;2024-01-15T00:54:04;95.57;;;37.42;;
29210;SDS011;16250;49.932;10.980;2024-01-15T00:56:30;86.95;;;33.28;;
29210;SDS011;16250;49.932;10.980;2024-01-15T00:58:56;97.88;;;36.20;;
29210;SDS011;16250;49.932;10.980;2024-01-15T01:01:21;96.70;;;37.80;;
29210;SDS011;16250;49.932;10.980;2024-01-15T01:03:47;85.25;;;32.80;;
29210;SDS011;16250;49.932;10.980;2024-01-15T01:06:12;86.05;;;39.63;;
29210;SDS011;16250;49.932;10.980;2024-01-15T01:08:38;86.13;;;32.25;;
29210;SDS011;16250;49.932;10.980;2024-01-15T01:11:04;95.13;;;36.63;;
29210;SDS011;16250;49.932;10.980;2024-01-15T01:13:31;96.10;;;36.55;;
29210;SDS011;16250;49.932;10.980;2024-01-15T01:15:56;90.65;;;35.60;;
29210;SDS011;16250;49.932;10.980;2024-01-15T01:18:23;88.93;;;39.45;;
29210;SDS011;16250;49.932;10.980;2024-01-15T01:20:48;84.93;;;32.10;;
29210;SDS011;16250;49.932;10.980;2024-01-15T01:23:14;86.45;;;32.65;;
29210;SDS011;16250;49.932;10.980;2024-01-15T01:25:39;88.80;;;34.58;;
29210;SDS011;16250;49.932;10.980;2024-01-15T01:28:05;85.63;;;39.53;;
29210;SDS011;16250;49.932;10.980;2024-01-15T01:30:30;83.15;;;31.58;;
29210;SDS011;16250;49.932;10.980;2024-01-15T01:32:56;94.70;;;37.90;;
29210;SDS011;16250;49.932;10.980;2024-01-15T01:35:22;77.90;;;31.67;;
29210;SDS011;16250;49.932;10.980;2024-01-15T01:37:47;88.20;;;37.17;;
29210;SDS011;16250;49.932;10.980;2024-01-15T01:40:13;77.38;;;31.20;;
29210;SDS011;16250;49.932;10.980;2024-01-15T01:42:38;89.28;;;32.03;;
29210;SDS011;16250;49.932;10.980;2024-01-15T01:45:04;83.03;;;32.55;;
29210;SDS011;16250;49.932;10.980;2024-01-15T01:47:30;79.50;;;35.92;;
29210;SDS011;16250;49.932;10.980;2024-01-15T01:49:56;74.35;;;31.42;;
29210;SDS011;16250;49.932;10.980;2024-01-15T01:52:21;87.68;;;37.78;;
29210;SDS011;16250;49.932;10.980;2024-01-15T01:54:47;79.47;;;31.10;;
29210;SDS011;16250;49.932;10.980;2024-01-15T01:57:12;79.20;;;30.77;;
29210;SDS011;16250;49.932;10.980;2024-01-15T01:59:38;75.25;;;31.30;;
29210;SDS011;16250;49.932;10.980;2024-01-15T02:02:04;71.78;;;32.05;;
29210;SDS011;16250;49.932;10.980;2024-01-15T02:04:31;77.80;;;32.90;;
29210;SDS011;16250;49.932;10.980;2024-01-15T02:06:57;77.68;;;36.65;;
29210;SDS011;16250;49.932;10.980;2024-01-15T02:09:24;76.18;;;30.52;;
29210;SDS011;16250;49.932;10.980;2024-01-15T02:11:50;77.43;;;31.80;;
29210;SDS011;16250;49.932;10.980;2024-01-15T02:14:15;71.45;;;31.52;;
29210;SDS011;16250;49.932;10.980;2024-01-15T02:16:41;74.35;;;34.83;;
29210;SDS011;16250;49.932;10.980;2024-01-15T02:19:06;74.60;;;35.63;;
29210;SDS011;16250;49.932;10.980;2024-01-15T02:21:32;76.82;;;29.15;;
29210;SDS011;16250;49.932;10.980;2024-01-15T02:23:57;72.40;;;29.88;;
29210;SDS011;16250;49.932;10.980;2024-01-15T02:26:23;75.55;;;31.15;;
29210;SDS011;16250;49.932;10.980;2024-01-15T02:28:48;73.45;;;28.50;;
29210;SDS011;16250;49.932;10.980;2024-01-15T02:31:14;70.53;;;29.02;;
29210;SDS011;16250;49.932;10.980;2024-01-15T02:33:40;77.80;;;32.60;;
29210;SDS011;16250;49.932;10.980;2024-01-15T02:36:07;70.97;;;28.83;;
29210;SDS011;16250;49.932;10.980;2024-01-15T02:38:32;67.40;;;27.70;;
29210;SDS011;16250;49.932;10.980;2024-01-15T02:40:58;66.13;;;28.05;;
29210;SDS011;16250;49.932;10.980;2024-01-15T02:43:23;71.47;;;29.50;;
29210;SDS011;16250;49.932;10.980;2024-01-15T02:45:49;74.15;;;38.55;;
29210;SDS011;16250;49.932;10.980;2024-01-15T02:48:14;71.25;;;29.70;;
29210;SDS011;16250;49.932;10.980;2024-01-15T02:50:40;68.50;;;34.50;;
29210;SDS011;16250;49.932;10.980;2024-01-15T02:53:05;69.18;;;33.30;;
29210;SDS011;16250;49.932;10.980;2024-01-15T02:55:30;61.40;;;25.70;;
29210;SDS011;16250;49.932;10.980;2024-01-15T02:57:56;68.90;;;37.78;;
29210;SDS011;16250;49.932;10.980;2024-01-15T03:00:21;61.25;;;31.95;;
29210;SDS011;16250;49.932;10.980;2024-01-15T03:02:47;62.25;;;27.23;;
29210;SDS011;16250;49.932;10.980;2024-01-15T03:05:13;68.45;;;34.38;;
29210;SDS011;16250;49.932;10.980;2024-01-15T03:07:38;56.10;;;25.95;;
29210;SDS011;16250;49.932;10.980;2024-01-15T03:10:04;57.03;;;27.42;;
29210;SDS011;16250;49.932;10.980;2024-01-15T03:12:30;53.10;;;30.13;;
29210;SDS011;16250;49.932;10.980;2024-01-15T03:14:56;54.15;;;24.58;;
29210;SDS011;16250;49.932;10.980;2024-01-15T03:17:22;62.13;;;26.70;;
29210;SDS011;16250;49.932;10.980;2024-01-15T03:19:47;59.00;;;33.63;;
29210;SDS011;16250;49.932;10.980;2024-01-15T03:22:14;52.63;;;29.27;;
29210;SDS011;16250;49.932;10.980;2024-01-15T03:24:40;56.05;;;23.88;;
29210;SDS011;16250;49.932;10.980;2024-01-15T03:27:05;50.03;;;23.92;;
29210;SDS011;16250;49.932;10.980;2024-01-15T03:29:31;54.05;;;25.60;;
29210;SDS011;16250;49.932;10.980;2024-01-15T03:31:56;56.78;;;23.83;;
29210;SDS011;16250;49.932;10.980;2024-01-15T03:34:21;58.45;;;26.42;;
29210;SDS011;16250;49.932;10.980;2024-01-15T03:36:47;52.70;;;23.38;;
29210;SDS011;16250;49.932;10.980;2024-01-15T03:39:12;48.85;;;23.63;;
29210;SDS011;16250;49.932;10.980;2024-01-15T03:41:38;49.30;;;24.52;;
29210;SDS011;16250;49.932;10.980;2024-01-15T03:44:03;49.10;;;25.17;;
29210;SDS011;16250;49.932;10.980;2024-01-15T03:46:28;48.13;;;23.50;;
29210;SDS011;16250;49.932;10.980;2024-01-15T03:48:54;52.35;;;23.02;;
29210;SDS011;16250;49.932;10.980;2024-01-15T03:51:19;50.28;;;23.70;;
29210;SDS011;16250;49.932;10.980;2024-01-15T03:53:45;50.25;;;26.02;;
29210;SDS011;16250;49.932;10.980;2024-01-15T03:56:10;50.55;;;24.05;;
29210;SDS011;16250;49.932;10.980;2024-01-15T03:58:36;45.08;;;22.65;;
29210;SDS011;16250;49.932;10.980;2024-01-15T04:01:01;48.08;;;23.30;;
29210;SDS011;16250;49.932;10.980;2024-01-15T04:03:27;45.30;;;23.40;;
29210;SDS011;16250;49.932;10.980;2024-01-15T04:05:52;47.65;;;22.73;;
29210;SDS011;16250;49.932;10.980;2024-01-15T04:08:18;47.50;;;22.65;;
29210;SDS011;16250;49.932;10.980;2024-01-15T04:10:43;53.58;;;25.05;;
29210;SDS011;16250;49.932;10.980;2024-01-15T04:13:08;47.40;;;22.70;;
29210;SDS011;16250;49.932;10.980;2024-01-15T04:15:34;46.65;;;23.10;;
29210;SDS011;16250;49.932;10.980;2024-01-15T04:18:00;46.20;;;22.65;;
29210;SDS011;16250;49.932;10.980;2024-01-15T04:20:26;47.22;;;23.85;;
29210;SDS011;16250;49.932;10.980;2024-01-15T04:22:51;42.35;;;21.70;;
29210;SDS011;16250;49.932;10.980;2024-01-15T04:25:17;50.97;;;25.63;;
29210;SDS011;16250;49.932;10.980;2024-01-15T04:27:42;53.55;;;24.55;;
29210;SDS011;16250;49.932;10.980;2024-01-15T04:30:08;54.45;;;26.23;;
29210;SDS011;16250;49.932;10.980;2024-01-15T04:32:33;46.03;;;28.63;;
29210;SDS011;16250;49.932;10.980;2024-01-15T04:34:59;49.63;;;24.27;;
29210;SDS011;16250;49.932;10.980;2024-01-15T04:37:24;50.35;;;22.33;;
29210;SDS011;16250;49.932;10.980;2024-01-15T04:39:49;48.65;;;22.58;;
29210;SDS011;16250;49.932;10.980;2024-01-15T04:42:17;53.90;;;24.98;;
29210;SDS011;16250;49.932;10.980;2024-01-15T04:44:43;47.15;;;27.23;;
29210;SDS011;16250;49.932;10.980;2024-01-15T04:47:08;49.10;;;23.65;;
29210;SDS011;16250;49.932;10.980;2024-01-15T04:49:34;48.20;;;29.50;;
29210;SDS011;16250;49.932;10.980;2024-01-15T04:51:59;50.50;;;23.58;;
29210;SDS011;16250;49.932;10.980;2024-01-15T04:54:24;46.40;;;26.63;;
29210;SDS011;16250;49.932;10.980;2024-01-15T04:56:50;50.88;;;24.70;;
29210;SDS011;16250;49.932;10.980;2024-01-15T04:59:15;48.92;;;25.50;;
29210;SDS011;16250;49.932;10.980;2024-01-15T05:01:41;51.25;;;31.08;;
29210;SDS011;16250;49.932;10.980;2024-01-15T05:04:06;53.40;;;23.48;;
29210;SDS011;16250;49.932;10.980;2024-01-15T05:06:32;52.42;;;23.15;;
29210;SDS011;16250;49.932;10.980;2024-01-15T05:08:57;49.17;;;31.35;;
29210;SDS011;16250;49.932;10.980;2024-01-15T05:11:22;49.53;;;22.88;;
29210;SDS011;16250;49.932;10.980;2024-01-15T05:13:48;50.63;;;23.75;;
29210;SDS011;16250;49.932;10.980;2024-01-15T05:16:13;46.42;;;22.80;;
29210;SDS011;16250;49.932;10.980;2024-01-15T05:18:39;57.90;;;33.63;;
29210;SDS011;16250;49.932;10.980;2024-01-15T05:21:04;66.78;;;45.45;;
29210;SDS011;16250;49.932;10.980;2024-01-15T05:23:31;55.25;;;28.75;;
29210;SDS011;16250;49.932;10.980;2024-01-15T05:25:56;52.72;;;24.48;;
29210;SDS011;16250;49.932;10.980;2024-01-15T05:28:22;47.30;;;24.50;;
29210;SDS011;16250;49.932;10.980;2024-01-15T05:30:47;49.75;;;24.08;;
29210;SDS011;16250;49.932;10.980;2024-01-15T05:33:13;52.40;;;31.63;;
29210;SDS011;16250;49.932;10.980;2024-01-15T05:35:38;48.25;;;22.55;;
29210;SDS011;16250;49.932;10.980;2024-01-15T05:38:04;46.13;;;21.45;;
29210;SDS011;16250;49.932;10.980;2024-01-15T05:40:29;53.20;;;24.20;;
29210;SDS011;16250;49.932;10.980;2024-01-15T05:42:54;55.22;;;27.50;;
29210;SDS011;16250;49.932;10.980;2024-01-15T05:45:20;50.60;;;26.42;;
29210;SDS011;16250;49.932;10.980;2024-01-15T05:47:45;50.33;;;32.05;;
29210;SDS011;16250;49.932;10.980;2024-01-15T05:50:11;50.35;;;24.40;;
29210;SDS011;16250;49.932;10.980;2024-01-15T05:52:36;53.83;;;30.65;;
29210;SDS011;16250;49.932;10.980;2024-01-15T05:55:02;51.53;;;28.85;;
29210;SDS011;16250;49.932;10.980;2024-01-15T05:57:28;45.88;;;26.00;;
29210;SDS011;16250;49.932;10.980;2024-01-15T05:59:53;48.30;;;26.95;;
29210;SDS011;16250;49.932;10.980;2024-01-15T06:02:19;53.35;;;26.75;;
29210;SDS011;16250;49.932;10.980;2024-01-15T06:04:44;49.10;;;23.88;;
29210;SDS011;16250;49.932;10.980;2024-01-15T06:07:09;50.10;;;31.73;;
29210;SDS011;16250;49.932;10.980;2024-01-15T06:09:35;48.33;;;23.02;;
29210;SDS011;16250;49.932;10.980;2024-01-15T06:12:00;45.25;;;23.02;;
29210;SDS011;16250;49.932;10.980;2024-01-15T06:14:26;44.00;;;22.52;;
29210;SDS011;16250;49.932;10.980;2024-01-15T06:16:52;45.63;;;23.38;;
29210;SDS011;16250;49.932;10.980;2024-01-15T06:19:17;43.13;;;20.88;;
29210;SDS011;16250;49.932;10.980;2024-01-15T06:21:42;47.17;;;21.35;;
29210;SDS011;16250;49.932;10.980;2024-01-15T06:24:08;45.90;;;29.27;;
29210;SDS011;16250;49.932;10.980;2024-01-15T06:26:35;46.72;;;28.08;;
29210;SDS011;16250;49.932;10.980;2024-01-15T06:29:00;45.53;;;23.63;;
29210;SDS011;16250;49.932;10.980;2024-01-15T06:31:25;51.35;;;26.20;;
29210;SDS011;16250;49.932;10.980;2024-01-15T06:33:51;48.53;;;22.33;;
29210;SDS011;16250;49.932;10.980;2024-01-15T06:36:16;58.00;;;33.55;;
29210;SDS011;16250;49.932;10.980;2024-01-15T06:38:43;49.03;;;25.10;;
29210;SDS011;16250;49.932;10.980;2024-01-15T06:41:09;52.83;;;24.70;;
29210;SDS011;16250;49.932;10.980;2024-01-15T06:43:34;57.17;;;31.73;;
29210;SDS011;16250;49.932;10.980;2024-01-15T06:46:00;53.55;;;23.80;;
29210;SDS011;16250;49.932;10.980;2024-01-15T06:48:25;57.05;;;26.83;;
29210;SDS011;16250;49.932;10.980;2024-01-15T06:50:50;55.95;;;25.13;;
29210;SDS011;16250;49.932;10.980;2024-01-15T06:53:16;46.00;;;24.55;;
29210;SDS011;16250;49.932;10.980;2024-01-15T06:55:41;50.90;;;31.10;;
29210;SDS011;16250;49.932;10.980;2024-01-15T06:58:07;51.28;;;24.42;;
29210;SDS011;16250;49.932;10.980;2024-01-15T07:00:32;52.50;;;24.55;;
29210;SDS011;16250;49.932;10.980;2024-01-15T07:02:58;47.10;;;23.50;;
29210;SDS011;16250;49.932;10.980;2024-01-15T07:05:23;53.40;;;24.25;;
29210;SDS011;16250;49.932;10.980;2024-01-15T07:07:49;46.83;;;27.17;;
29210;SDS011;16250;49.932;10.980;2024-01-15T07:10:14;43.25;;;28.75;;
29210;SDS011;16250;49.932;10.980;2024-01-15T07:12:43;46.53;;;21.98;;
29210;SDS011;16250;49.932;10.980;2024-01-15T07:15:09;60.42;;;30.30;;
29210;SDS011;16250;49.932;10.980;2024-01-15T07:17:34;45.10;;;24.13;;
29210;SDS011;16250;49.932;10.980;2024-01-15T07:20:00;46.42;;;28.10;;
29210;SDS011;16250;49.932;10.980;2024-01-15T07:22:25;41.47;;;20.77;;
29210;SDS011;16250;49.932;10.980;2024-01-15T07:24:51;43.00;;;20.35;;
29210;SDS011;16250;49.932;10.980;2024-01-15T07:27:16;42.83;;;28.08;;
29210;SDS011;16250;49.932;10.980;2024-01-15T07:29:42;43.20;;;27.92;;
29210;SDS011;16250;49.932;10.980;2024-01-15T07:32:08;44.65;;;20.08;;
29210;SDS011;16250;49.932;10.980;2024-01-15T07:34:33;38.92;;;22.88;;
29210;SDS011;16250;49.932;10.980;2024-01-15T07:36:59;41.92;;;22.23;;
29210;SDS011;16250;49.932;10.980;2024-01-15T07:39:24;40.70;;;23.63;;
29210;SDS011;16250;49.932;10.980;2024-01-15T07:41:50;42.55;;;25.45;;
29210;SDS011;16250;49.932;10.980;2024-01-15T07:44:16;38.53;;;27.38;;
29210;SDS011;16250;49.932;10.980;2024-01-15T07:46:45;44.25;;;22.25;;
29210;SDS011;16250;49.932;10.980;2024-01-15T07:49:11;49.67;;;24.15;;
29210;SDS011;16250;49.932;10.980;2024-01-15T07:51:36;43.85;;;22.75;;
29210;SDS011;16250;49.932;10.980;2024-01-15T07:54:02;48.65;;;25.02;;
29210;SDS011;16250;49.932;10.980;2024-01-15T07:56:27;47.15;;;23.70;;
29210;SDS011;16250;49.932;10.980;2024-01-15T07:58:53;47.55;;;29.15;;
29210;SDS011;16250;49.932;10.980;2024-01-15T08:01:18;47.60;;;23.27;;
29210;SDS011;16250;49.932;10.980;2024-01-15T08:03:43;47.05;;;23.23;;
29210;SDS011;16250;49.932;10.980;2024-01-15T08:06:09;44.22;;;28.77;;
29210;SDS011;16250;49.932;10.980;2024-01-15T08:08:35;49.05;;;30.33;;
29210;SDS011;16250;49.932;10.980;2024-01-15T08:11:00;46.30;;;30.00;;
29210;SDS011;16250;49.932;10.980;2024-01-15T08:13:26;51.05;;;24.48;;
29210;SDS011;16250;49.932;10.980;2024-01-15T08:15:51;44.00;;;23.67;;
29210;SDS011;16250;49.932;10.980;2024-01-15T08:18:17;44.22;;;22.73;;
29210;SDS011;16250;49.932;10.980;2024-01-15T08:20:42;47.80;;;31.55;;
29210;SDS011;16250;49.932;10.980;2024-01-15T08:23:08;47.15;;;30.00;;
29210;SDS011;16250;49.932;10.980;2024-01-15T08:25:34;46.22;;;29.67;;
29210;SDS011;16250;49.932;10.980;2024-01-15T08:28:00;43.72;;;22.88;;
29210;SDS011;16250;49.932;10.980;2024-01-15T08:30:25;49.28;;;25.10;;
29210;SDS011;16250;49.932;10.980;2024-01-15T08:32:53;43.63;;;28.48;;
29210;SDS011;16250;49.932;10.980;2024-01-15T08:35:18;40.53;;;22.40;;
29210;SDS011;16250;49.932;10.980;2024-01-15T08:37:47;42.22;;;27.73;;
29210;SDS011;16250;49.932;10.980;2024-01-15T08:40:16;41.28;;;22.55;;
29210;SDS011;16250;49.932;10.980;2024-01-15T08:42:41;43.65;;;21.58;;
29210;SDS011;16250;49.932;10.980;2024-01-15T08:45:08;40.03;;;20.92;;
29210;SDS011;16250;49.932;10.980;2024-01-15T08:47:34;44.00;;;27.08;;
29210;SDS011;16250;49.932;10.980;2024-01-15T08:49:59;40.65;;;26.52;;
29210;SDS011;16250;49.932;10.980;2024-01-15T08:52:25;37.03;;;26.67;;
29210;SDS011;16250;49.932;10.980;2024-01-15T08:54:50;42.97;;;22.60;;
29210;SDS011;16250;49.932;10.980;2024-01-15T08:57:15;38.22;;;22.35;;
29210;SDS011;16250;49.932;10.980;2024-01-15T08:59:41;39.72;;;21.55;;
29210;SDS011;16250;49.932;10.980;2024-01-15T09:02:07;42.63;;;22.33;;
29210;SDS011;16250;49.932;10.980;2024-01-15T09:04:32;37.45;;;24.90;;
29210;SDS011;16250;49.932;10.980;2024-01-15T09:06:58;36.75;;;25.15;;
29210;SDS011;16250;49.932;10.980;2024-01-15T09:09:23;34.70;;;25.38;;
29210;SDS011;16250;49.932;10.980;2024-01-15T09:14:31;35.47;;;24.38;;
29210;SDS011;16250;49.932;10.980;2024-01-15T09:16:59;37.95;;;19.98;;
29210;SDS011;16250;49.932;10.980;2024-01-15T09:19:25;38.17;;;20.30;;
29210;SDS011;16250;49.932;10.980;2024-01-15T09:21:50;38.35;;;20.45;;
29210;SDS011;16250;49.932;10.980;2024-01-15T09:24:15;37.08;;;23.95;;
29210;SDS011;16250;49.932;10.980;2024-01-15T09:26:41;33.75;;;23.25;;
29210;SDS011;16250;49.932;10.980;2024-01-15T09:29:06;37.80;;;21.25;;
29210;SDS011;16250;49.932;10.980;2024-01-15T09:31:31;35.75;;;24.00;;
29210;SDS011;16250;49.932;10.980;2024-01-15T09:33:57;36.25;;;24.67;;
29210;SDS011;16250;49.932;10.980;2024-01-15T09:36:24;36.42;;;19.23;;
29210;SDS011;16250;49.932;10.980;2024-01-15T09:38:50;35.90;;;24.38;;
29210;SDS011;16250;49.932;10.980;2024-01-15T09:41:16;35.42;;;23.83;;
29210;SDS011;16250;49.932;10.980;2024-01-15T09:43:41;35.10;;;23.13;;
29210;SDS011;16250;49.932;10.980;2024-01-15T09:46:07;35.25;;;23.63;;
29210;SDS011;16250;49.932;10.980;2024-01-15T09:48:33;39.28;;;20.35;;
29210;SDS011;16250;49.932;10.980;2024-01-15T09:51:00;32.20;;;19.20;;
29210;SDS011;16250;49.932;10.980;2024-01-15T09:53:29;31.63;;;23.08;;
29210;SDS011;16250;49.932;10.980;2024-01-15T09:55:54;33.53;;;22.95;;
29210;SDS011;16250;49.932;10.980;2024-01-15T09:58:20;33.90;;;22.83;;
29210;SDS011;16250;49.932;10.980;2024-01-15T10:00:47;38.20;;;20.33;;
29210;SDS011;16250;49.932;10.980;2024-01-15T10:03:15;37.42;;;23.73;;
29210;SDS011;16250;49.932;10.980;2024-01-15T10:05:40;36.42;;;20.02;;
29210;SDS011;16250;49.932;10.980;2024-01-15T10:08:05;38.22;;;18.45;;
29210;SDS011;16250;49.932;10.980;2024-01-15T10:10:31;35.35;;;24.38;;
29210;SDS011;16250;49.932;10.980;2024-01-15T10:12:58;33.00;;;22.45;;
29210;SDS011;16250;49.932;10.980;2024-01-15T10:15:23;37.33;;;24.58;;
29210;SDS011;16250;49.932;10.980;2024-01-15T10:17:51;35.17;;;23.95;;
29210;SDS011;16250;49.932;10.980;2024-01-15T10:20:16;35.60;;;19.48;;
29210;SDS011;16250;49.932;10.980;2024-01-15T10:22:42;33.65;;;23.67;;
29210;SDS011;16250;49.932;10.980;2024-01-15T10:25:11;35.75;;;23.77;;
29210;SDS011;16250;49.932;10.980;2024-01-15T10:27:37;35.35;;;19.35;;
29210;SDS011;16250;49.932;10.980;2024-01-15T10:30:03;32.70;;;23.35;;
29210;SDS011;16250;49.932;10.980;2024-01-15T10:32:29;32.50;;;22.60;;
29210;SDS011;16250;49.932;10.980;2024-01-15T10:34:54;38.08;;;23.52;;
29210;SDS011;16250;49.932;10.980;2024-01-15T10:37:20;34.97;;;23.08;;
29210;SDS011;16250;49.932;10.980;2024-01-15T10:39:48;34.40;;;23.98;;
29210;SDS011;16250;49.932;10.980;2024-01-15T10:42:13;34.55;;;20.25;;
29210;SDS011;16250;49.932;10.980;2024-01-15T10:44:39;35.20;;;20.13;;
29210;SDS011;16250;49.932;10.980;2024-01-15T10:47:04;36.72;;;24.33;;
29210;SDS011;16250;49.932;10.980;2024-01-15T10:49:30;35.95;;;24.73;;
29210;SDS011;16250;49.932;10.980;2024-01-15T10:51:56;35.75;;;25.38;;
29210;SDS011;16250;49.932;10.980;2024-01-15T10:54:21;36.08;;;24.55;;
29210;SDS011;16250;49.932;10.980;2024-01-15T10:56:49;37.15;;;26.52;;
29210;SDS011;16250;49.932;10.980;2024-01-15T10:59:15;37.50;;;24.30;;
29210;SDS011;16250;49.932;10.980;2024-01-15T11:01:41;41.67;;;26.20;;
29210;SDS011;16250;49.932;10.980;2024-01-15T11:04:07;34.08;;;25.42;;
29210;SDS011;16250;49.932;10.980;2024-01-15T11:06:52;31.55;;;22.77;;
29210;SDS011;16250;49.932;10.980;2024-01-15T11:09:18;32.78;;;21.85;;
29210;SDS011;16250;49.932;10.980;2024-01-15T11:11:44;33.47;;;18.73;;
29210;SDS011;16250;49.932;10.980;2024-01-15T11:14:18;30.92;;;22.13;;
29210;SDS011;16250;49.932;10.980;2024-01-15T11:17:00;49.28;;;31.50;;
29210;SDS011;16250;49.932;10.980;2024-01-15T11:19:26;31.90;;;21.95;;
29210;SDS011;16250;49.932;10.980;2024-01-15T11:22:00;35.72;;;19.98;;
29210;SDS011;16250;49.932;10.980;2024-01-15T11:24:41;34.72;;;23.90;;
29210;SDS011;16250;49.932;10.980;2024-01-15T11:27:07;34.72;;;23.27;;
29210;SDS011;16250;49.932;10.980;2024-01-15T11:29:36;30.73;;;21.75;;
29210;SDS011;16250;49.932;10.980;2024-01-15T11:32:06;33.33;;;22.13;;
29210;SDS011;16250;49.932;10.980;2024-01-15T11:34:53;31.20;;;22.10;;
29210;SDS011;16250;49.932;10.980;2024-01-15T11:37:23;32.67;;;22.63;;
29210;SDS011;16250;49.932;10.980;2024-01-15T11:39:50;27.52;;;20.38;;
29210;SDS011;16250;49.932;10.980;2024-01-15T11:42:20;31.02;;;21.73;;
29210;SDS011;16250;49.932;10.980;2024-01-15T11:44:46;29.58;;;20.95;;
29210;SDS011;16250;49.932;10.980;2024-01-15T11:47:12;29.52;;;22.05;;
29210;SDS011;16250;49.932;10.980;2024-01-15T11:49:48;31.45;;;20.23;;
29210;SDS011;16250;49.932;10.980;2024-01-15T11:52:39;31.35;;;20.95;;
29210;SDS011;16250;49.932;10.980;2024-01-15T11:55:11;30.60;;;22.05;;
29210;SDS011;16250;49.932;10.980;2024-01-15T11:57:46;30.77;;;21.83;;
29210;SDS011;16250;49.932;10.980;2024-01-15T12:00:14;32.88;;;22.13;;
29210;SDS011;16250;49.932;10.980;2024-01-15T12:02:41;33.97;;;23.60;;
29210;SDS011;16250;49.932;10.980;2024-01-15T12:05:11;31.10;;;21.80;;
29210;SDS011;16250;49.932;10.980;2024-01-15T12:07:38;31.02;;;21.92;;
29210;SDS011;16250;49.932;10.980;2024-01-15T12:10:10;28.63;;;22.40;;
29210;SDS011;16250;49.932;10.980;2024-01-15T12:12:46;32.47;;;22.00;;
29210;SDS011;16250;49.932;10.980;2024-01-15T12:15:25;30.92;;;21.30;;
29210;SDS011;16250;49.932;10.980;2024-01-15T12:17:52;28.52;;;21.20;;
29210;SDS011;16250;49.932;10.980;2024-01-15T12:20:19;28.27;;;21.25;;
29210;SDS011;16250;49.932;10.980;2024-01-15T12:22:44;30.10;;;21.35;;
29210;SDS011;16250;49.932;10.980;2024-01-15T12:25:11;28.80;;;21.42;;
29210;SDS011;16250;49.932;10.980;2024-01-15T12:27:36;30.85;;;22.10;;
29210;SDS011;16250;49.932;10.980;2024-01-15T12:30:02;27.42;;;20.38;;
29210;SDS011;16250;49.932;10.980;2024-01-15T12:32:28;26.85;;;19.35;;
29210;SDS011;16250;49.932;10.980;2024-01-15T12:34:54;27.65;;;20.20;;
29210;SDS011;16250;49.932;10.980;2024-01-15T12:37:19;25.85;;;19.30;;
29210;SDS011;16250;49.932;10.980;2024-01-15T12:39:45;26.10;;;19.35;;
29210;SDS011;16250;49.932;10.980;2024-01-15T12:42:10;26.75;;;19.75;;
29210;SDS011;16250;49.932;10.980;2024-01-15T12:44:36;27.38;;;20.35;;
29210;SDS011;16250;49.932;10.980;2024-01-15T12:47:04;27.42;;;19.88;;
29210;SDS011;16250;49.932;10.980;2024-01-15T12:49:30;28.95;;;20.70;;
29210;SDS011;16250;49.932;10.980;2024-01-15T12:51:59;28.38;;;19.95;;
29210;SDS011;16250;49.932;10.980;2024-01-15T12:54:25;28.27;;;19.70;;
29210;SDS011;16250;49.932;10.980;2024-01-15T12:56:51;25.95;;;20.13;;
29210;SDS011;16250;49.932;10.980;2024-01-15T12:59:17;27.15;;;20.17;;
29210;SDS011;16250;49.932;10.980;2024-01-15T13:01:43;23.65;;;17.77;;
29210;SDS011;16250;49.932;10.980;2024-01-15T13:04:09;25.98;;;19.25;;
29210;SDS011;16250;49.932;10.980;2024-01-15T13:06:35;25.83;;;18.10;;
29210;SDS011;16250;49.932;10.980;2024-01-15T13:09:02;26.17;;;18.48;;
29210;SDS011;16250;49.932;10.980;2024-01-15T13:11:31;24.02;;;17.27;;
29210;SDS011;16250;49.932;10.980;2024-01-15T13:13:57;22.58;;;18.10;;
29210;SDS011;16250;49.932;10.980;2024-01-15T13:16:22;24.38;;;17.55;;
29210;SDS011;16250;49.932;10.980;2024-01-15T13:18:48;22.65;;;17.48;;
29210;SDS011;16250;49.932;10.980;2024-01-15T13:21:14;25.88;;;17.42;;
29210;SDS011;16250;49.932;10.980;2024-01-15T13:23:40;22.33;;;17.98;;
29210;SDS011;16250;49.932;10.980;2024-01-15T13:26:05;22.90;;;17.23;;
29210;SDS011;16250;49.932;10.980;2024-01-15T13:28:32;20.35;;;15.52;;
29210;SDS011;16250;49.932;10.980;2024-01-15T13:30:57;24.15;;;18.38;;
29210;SDS011;16250;49.932;10.980;2024-01-15T13:33:22;19.58;;;15.90;;
29210;SDS011;16250;49.932;10.980;2024-01-15T13:35:48;24.40;;;16.58;;
29210;SDS011;16250;49.932;10.980;2024-01-15T13:38:16;21.80;;;17.05;;
29210;SDS011;16250;49.932;10.980;2024-01-15T13:40:41;20.15;;;16.33;;
29210;SDS011;16250;49.932;10.980;2024-01-15T13:43:07;21.48;;;15.95;;
29210;SDS011;16250;49.932;10.980;2024-01-15T13:45:36;20.08;;;15.27;;
29210;SDS011;16250;49.932;10.980;2024-01-15T13:48:02;21.52;;;15.57;;
29210;SDS011;16250;49.932;10.980;2024-01-15T13:50:30;22.48;;;16.13;;
29210;SDS011;16250;49.932;10.980;2024-01-15T13:52:56;22.00;;;16.13;;
29210;SDS011;16250;49.932;10.980;2024-01-15T13:55:22;21.70;;;15.55;;
29210;SDS011;16250;49.932;10.980;2024-01-15T13:57:47;20.95;;;16.17;;
29210;SDS011;16250;49.932;10.980;2024-01-15T14:00:13;18.75;;;14.68;;
29210;SDS011;16250;49.932;10.980;2024-01-15T14:02:43;23.52;;;16.25;;
29210;SDS011;16250;49.932;10.980;2024-01-15T14:05:09;18.77;;;14.65;;